createdAt,value
2022-10-23T00:00:18.013Z,95046.66
2022-10-23T00:02:45.168Z,95042.94
2022-10-23T00:05:12.117Z,95043.47
2022-10-23T00:07:38.879Z,95036.59
2022-10-23T00:10:07.911Z,95030.50
2022-10-23T00:12:34.841Z,95032.09
2022-10-23T00:15:01.785Z,95029.19
2022-10-23T00:17:28.445Z,95031.03
2022-10-23T00:19:55.129Z,95032.84
2022-10-23T00:22:22.106Z,95032.53
2022-10-23T00:24:48.799Z,95041.69
2022-10-23T00:27:16.797Z,95045.31
2022-10-23T00:29:45.083Z,95049.72
2022-10-23T00:32:11.847Z,95044.66
2022-10-23T00:34:38.577Z,95050.44
2022-10-23T00:37:05.378Z,95046.44
2022-10-23T00:39:32.070Z,95031.09
2022-10-23T00:41:59.087Z,95032.63
2022-10-23T00:45:03.131Z,95039.22
2022-10-23T00:47:31.141Z,95034.94
2022-10-23T00:49:58.820Z,95038.38
2022-10-23T00:52:25.508Z,95048.16
2022-10-23T00:54:52.605Z,95048.94
2022-10-23T00:57:19.358Z,95040.50
2022-10-23T00:59:46.144Z,95043.72
2022-10-23T01:02:13.215Z,95038.19
2022-10-23T01:04:41.770Z,95040.03
2022-10-23T01:07:15.133Z,95040.56
2022-10-23T01:09:48.198Z,95032.94
2022-10-23T01:12:20.989Z,95037.19
2022-10-23T01:15:00.146Z,95036.13
2022-10-23T01:17:34.208Z,95039.81
2022-10-23T01:20:14.188Z,95040.09
2022-10-23T01:23:05.540Z,95025.81
2022-10-23T01:25:55.570Z,95025.50
2022-10-23T01:28:29.538Z,95010.38
2022-10-23T01:30:58.152Z,95011.34
2022-10-23T01:33:35.285Z,95011.25
2022-10-23T01:36:05.893Z,95009.06
2022-10-23T01:38:41.219Z,95017.44
2022-10-23T01:41:20.936Z,95007.38
2022-10-23T01:43:54.643Z,95007.16
2022-10-23T01:46:23.619Z,94999.78
2022-10-23T01:48:53.201Z,95001.91
2022-10-23T01:51:25.022Z,94991.63
2022-10-23T01:53:57.263Z,94998.03
2022-10-23T01:56:28.903Z,94991.69
2022-10-23T01:59:00.831Z,94990.91
2022-10-23T02:01:33.026Z,94981.13
2022-10-23T02:04:03.286Z,94983.47
2022-10-23T02:06:30.910Z,94982.09
2022-10-23T02:08:57.755Z,94970.69
2022-10-23T02:11:24.857Z,94967.44
2022-10-23T02:14:01.207Z,94973.91
2022-10-23T02:16:36.925Z,94974.06
2022-10-23T02:19:12.819Z,94970.00
2022-10-23T02:21:43.766Z,94979.38
2022-10-23T02:24:13.723Z,94978.03
2022-10-23T02:26:51.492Z,94971.47
2022-10-23T02:29:26.479Z,94974.44
2022-10-23T02:31:55.244Z,94977.38
2022-10-23T02:34:22.942Z,94968.94
2022-10-23T02:36:49.754Z,94963.72
2022-10-23T02:39:20.127Z,94957.09
2022-10-23T02:41:54.820Z,94956.00
2022-10-23T02:44:34.054Z,94962.22
2022-10-23T02:47:14.158Z,94958.44
2022-10-23T02:49:50.697Z,94957.31
2022-10-23T02:52:24.235Z,94953.66
2022-10-23T02:55:05.202Z,94957.38
2022-10-23T02:57:49.681Z,94953.94
2022-10-23T03:00:20.323Z,94939.19
2022-10-23T03:02:56.705Z,94941.38
2022-10-23T03:05:27.213Z,94946.81
2022-10-23T03:07:54.247Z,94952.03
2022-10-23T03:10:21.233Z,94952.25
2022-10-23T03:12:48.844Z,94946.75
2022-10-23T03:15:17.814Z,94943.53
2022-10-23T03:17:44.521Z,94936.66
2022-10-23T03:20:11.525Z,94950.19
2022-10-23T03:22:38.310Z,94942.03
2022-10-23T03:25:07.831Z,94952.66
2022-10-23T03:27:35.627Z,94950.81
2022-10-23T03:30:06.186Z,94951.84
2022-10-23T03:32:36.582Z,94943.13
2022-10-23T03:35:03.741Z,94945.53
2022-10-23T03:37:30.527Z,94943.69
2022-10-23T03:39:57.311Z,94952.88
2022-10-23T03:42:24.028Z,94946.03
2022-10-23T03:44:50.714Z,94941.78
2022-10-23T03:47:18.875Z,94936.25
2022-10-23T03:49:46.963Z,94933.34
2022-10-23T03:52:13.855Z,94932.97
2022-10-23T03:54:40.608Z,94928.19
2022-10-23T03:57:07.345Z,94929.50
2022-10-23T03:59:34.143Z,94930.78
2022-10-23T04:02:01.002Z,94924.47
2022-10-23T04:04:27.820Z,94922.38
2022-10-23T04:06:55.770Z,94926.34
2022-10-23T04:09:22.770Z,94921.06
2022-10-23T04:11:49.409Z,94921.56
2022-10-23T04:14:16.639Z,94919.44
2022-10-23T04:16:43.300Z,94919.13
2022-10-23T04:19:10.208Z,94920.91
2022-10-23T04:21:36.862Z,94914.47
2022-10-23T04:24:05.754Z,94914.41
2022-10-23T04:26:32.519Z,94915.88
2022-10-23T04:28:59.282Z,94919.97
2022-10-23T04:31:28.612Z,94919.09
2022-10-23T04:33:55.494Z,94923.03
2022-10-23T04:36:28.997Z,94919.81
2022-10-23T04:38:58.739Z,94915.03
2022-10-23T04:41:27.025Z,94920.25
2022-10-23T04:43:53.666Z,94918.09
2022-10-23T04:46:20.344Z,94914.13
2022-10-23T04:48:48.494Z,94907.56
2022-10-23T04:51:29.570Z,94909.16
2022-10-23T04:54:38.005Z,94904.13
2022-10-23T04:57:21.298Z,94894.88
2022-10-23T05:00:06.088Z,94895.38
2022-10-23T05:02:40.338Z,94893.44
2022-10-23T05:05:08.079Z,94893.69
2022-10-23T05:07:57.449Z,94886.03
2022-10-23T05:10:47.904Z,94889.47
2022-10-23T05:13:19.649Z,94892.88
2022-10-23T05:15:48.279Z,94893.19
2022-10-23T05:18:22.921Z,94890.09
2022-10-23T05:20:52.131Z,94898.00
2022-10-23T05:23:21.957Z,94891.59
2022-10-23T05:25:55.217Z,94892.41
2022-10-23T05:28:23.623Z,94884.25
2022-10-23T05:30:51.378Z,94887.13
2022-10-23T05:33:18.214Z,94889.75
2022-10-23T05:35:45.560Z,94886.19
2022-10-23T05:38:15.606Z,94879.63
2022-10-23T05:40:43.475Z,94877.78
2022-10-23T05:43:15.434Z,94876.72
2022-10-23T05:45:50.729Z,94880.97
2022-10-23T05:48:35.398Z,94877.72
2022-10-23T05:51:10.844Z,94873.25
2022-10-23T05:53:47.651Z,94877.47
2022-10-23T05:56:30.751Z,94881.94
2022-10-23T05:59:05.258Z,94872.75
2022-10-23T06:01:53.706Z,94872.25
2022-10-23T06:04:36.625Z,94870.91
2022-10-23T06:07:25.135Z,94876.19
2022-10-23T06:09:54.282Z,94881.94
2022-10-23T06:12:21.939Z,94879.56
2022-10-23T06:14:51.028Z,94879.00
2022-10-23T06:17:20.175Z,94883.78
2022-10-23T06:19:47.076Z,94887.03
2022-10-23T06:22:17.355Z,94886.00
2022-10-23T06:24:58.946Z,94890.22
2022-10-23T06:27:27.219Z,94881.03
2022-10-23T06:29:55.145Z,94882.94
2022-10-23T06:32:23.334Z,94893.53
2022-10-23T06:35:09.485Z,94888.03
2022-10-23T06:37:36.169Z,94889.91
2022-10-23T06:40:12.065Z,94891.28
2022-10-23T06:42:59.009Z,94896.09
2022-10-23T06:45:55.480Z,94893.75
2022-10-23T06:48:46.970Z,94890.06
2022-10-23T06:51:22.412Z,94899.06
2022-10-23T06:53:49.879Z,94896.75
2022-10-23T06:56:39.406Z,94904.16
2022-10-23T06:59:08.033Z,94907.13
2022-10-23T07:01:36.120Z,94897.13
2022-10-23T07:04:07.562Z,94890.06
2022-10-23T07:06:34.291Z,94889.06
2022-10-23T07:09:01.328Z,94891.72
2022-10-23T07:11:48.068Z,94892.50
2022-10-23T07:14:15.030Z,94897.59
2022-10-23T07:16:42.355Z,94886.00
2022-10-23T07:19:11.247Z,94896.41
2022-10-23T07:21:43.759Z,94893.00
2022-10-23T07:24:31.914Z,94890.69
2022-10-23T07:27:00.611Z,94894.94
2022-10-23T07:29:29.052Z,94890.06
2022-10-23T07:31:57.510Z,94891.78
2022-10-23T07:35:04.064Z,94887.66
2022-10-23T07:37:33.907Z,94890.16
2022-10-23T07:40:03.094Z,94886.53
2022-10-23T07:42:32.588Z,94880.28
2022-10-23T07:44:59.251Z,94884.88
2022-10-23T07:47:26.026Z,94880.47
2022-10-23T07:49:53.012Z,94880.81
2022-10-23T07:52:21.724Z,94885.38
2022-10-23T07:55:09.245Z,94880.91
2022-10-23T07:57:38.451Z,94884.59
2022-10-23T08:00:27.871Z,94891.03
2022-10-23T08:03:04.098Z,94887.41
2022-10-23T08:05:31.941Z,94883.22
2022-10-23T08:08:02.519Z,94879.56
2022-10-23T08:10:30.277Z,94881.72
2022-10-23T08:12:58.207Z,94884.91
2022-10-23T08:15:45.227Z,94873.81
2022-10-23T08:18:31.417Z,94871.44
2022-10-23T08:21:02.058Z,94875.41
2022-10-23T08:23:30.765Z,94872.72
2022-10-23T08:25:59.048Z,94876.47
2022-10-23T08:28:26.112Z,94872.72
2022-10-23T08:30:55.871Z,94866.63
2022-10-23T08:33:22.933Z,94863.94
2022-10-23T08:35:50.757Z,94854.91
2022-10-23T08:38:25.092Z,94861.81
2022-10-23T08:40:53.824Z,94857.28
2022-10-23T08:43:34.358Z,94851.16
2022-10-23T08:46:17.762Z,94852.97
2022-10-23T08:49:35.747Z,94852.06
2022-10-23T08:52:14.106Z,94849.50
2022-10-23T08:54:48.613Z,94843.75
2022-10-23T08:57:18.476Z,94848.00
2022-10-23T08:59:48.133Z,94843.72
2022-10-23T09:02:20.453Z,94839.94
2022-10-23T09:04:50.387Z,94832.75
2022-10-23T09:07:34.021Z,94837.47
2022-10-23T09:10:16.508Z,94840.66
2022-10-23T09:12:44.597Z,94830.47
2022-10-23T09:15:23.160Z,94834.69
2022-10-23T09:17:55.981Z,94827.53
2022-10-23T09:20:25.714Z,94821.75
2022-10-23T09:22:55.087Z,94813.97
2022-10-23T09:25:25.466Z,94823.06
2022-10-23T09:27:57.441Z,94823.63
2022-10-23T09:30:29.913Z,94818.22
2022-10-23T09:32:56.587Z,94809.44
2022-10-23T09:35:25.730Z,94809.75
2022-10-23T09:37:55.773Z,94796.03
2022-10-23T09:40:30.227Z,94787.34
2022-10-23T09:43:00.584Z,94787.75
2022-10-23T09:45:31.542Z,94782.91
2022-10-23T09:48:11.656Z,94784.03
2022-10-23T09:50:47.374Z,94782.97
2022-10-23T09:53:17.128Z,94779.41
2022-10-23T09:55:51.517Z,94783.06
2022-10-23T09:58:25.064Z,94781.31
2022-10-23T10:00:54.704Z,94779.41
2022-10-23T10:03:37.706Z,94781.91
2022-10-23T10:06:23.198Z,94781.25
2022-10-23T10:08:53.343Z,94776.22
2022-10-23T10:11:25.842Z,94777.00
2022-10-23T10:14:06.832Z,94777.91
2022-10-23T10:16:42.568Z,94773.47
2022-10-23T10:19:20.047Z,94767.28
2022-10-23T10:21:52.907Z,94763.97
2022-10-23T10:24:25.901Z,94761.78
2022-10-23T10:27:00.939Z,94752.50
2022-10-23T10:29:43.917Z,94743.84
2022-10-23T10:32:24.909Z,94736.31
2022-10-23T10:34:58.902Z,94730.66
2022-10-23T10:37:31.431Z,94733.34
2022-10-23T10:40:02.965Z,94729.84
2022-10-23T10:42:42.273Z,94729.84
2022-10-23T10:45:19.745Z,94723.94
2022-10-23T10:48:00.877Z,94723.06
2022-10-23T10:50:42.699Z,94728.91
2022-10-23T10:53:28.189Z,94722.25
2022-10-23T10:55:57.395Z,94710.34
2022-10-23T10:58:31.914Z,94717.25
2022-10-23T11:01:03.913Z,94716.41
2022-10-23T11:03:39.879Z,94716.22
2022-10-23T11:06:15.216Z,94712.47
2022-10-23T11:08:56.250Z,94710.53
2022-10-23T11:11:31.514Z,94706.94
2022-10-23T11:13:58.442Z,94702.47
2022-10-23T11:16:30.684Z,94707.03
2022-10-23T11:19:11.444Z,94699.56
2022-10-23T11:21:44.797Z,94692.25
2022-10-23T11:24:27.655Z,94688.19
2022-10-23T11:27:19.255Z,94679.28
2022-10-23T11:30:04.139Z,94679.56
2022-10-23T11:33:14.934Z,94674.78
2022-10-23T11:35:54.815Z,94677.91
2022-10-23T11:38:27.125Z,94666.34
2022-10-23T11:40:56.407Z,94663.09
2022-10-23T11:43:28.397Z,94667.50
2022-10-23T11:45:55.382Z,94654.63
2022-10-23T11:48:35.517Z,94655.66
2022-10-23T11:51:05.141Z,94658.72
2022-10-23T11:53:40.269Z,94657.66
2022-10-23T11:56:26.646Z,94650.03
2022-10-23T11:58:55.692Z,94646.22
2022-10-23T12:01:31.396Z,94655.00
2022-10-23T12:04:03.886Z,94640.88
2022-10-23T12:06:38.075Z,94643.66
2022-10-23T12:09:08.075Z,94635.59
2022-10-23T12:11:44.688Z,94633.56
2022-10-23T12:14:27.796Z,94628.41
2022-10-23T12:16:54.640Z,94626.59
2022-10-23T12:19:25.097Z,94633.31
2022-10-23T12:21:53.633Z,94629.03
2022-10-23T12:24:49.172Z,94626.03
2022-10-23T12:27:28.559Z,94614.13
2022-10-23T12:30:09.513Z,94613.03
2022-10-23T12:32:46.862Z,94612.38
2022-10-23T12:35:27.749Z,94615.94
2022-10-23T12:38:10.326Z,94610.81
2022-10-23T12:40:37.334Z,94611.59
2022-10-23T12:43:20.749Z,94612.03
2022-10-23T12:45:48.045Z,94612.03
2022-10-23T12:48:19.709Z,94608.34
2022-10-23T12:50:51.106Z,94610.84
2022-10-23T12:53:19.823Z,94605.94
2022-10-23T12:55:48.044Z,94606.94
2022-10-23T12:58:19.517Z,94605.22
2022-10-23T13:00:51.496Z,94601.41
2022-10-23T13:03:21.681Z,94601.56
2022-10-23T13:05:51.497Z,94593.56
2022-10-23T13:08:19.001Z,94591.03
2022-10-23T13:11:06.743Z,94593.81
2022-10-23T13:13:40.410Z,94593.03
2022-10-23T13:16:14.461Z,94596.28
2022-10-23T13:18:42.043Z,94595.81
2022-10-23T13:21:17.967Z,94587.44
2022-10-23T13:23:45.166Z,94587.44
2022-10-23T13:26:28.668Z,94578.22
2022-10-23T13:28:56.346Z,94577.75
2022-10-23T13:31:26.888Z,94581.25
2022-10-23T13:34:17.405Z,94573.50
2022-10-23T13:37:23.556Z,94571.81
2022-10-23T13:39:59.746Z,94571.38
2022-10-23T13:42:26.492Z,94574.06
2022-10-23T13:44:53.357Z,94570.25
2022-10-23T13:47:20.645Z,94571.03
2022-10-23T13:49:47.612Z,94569.91
2022-10-23T13:52:19.323Z,94566.44
2022-10-23T13:54:47.698Z,94574.19
2022-10-23T13:57:15.756Z,94571.94
2022-10-23T13:59:42.706Z,94564.97
2022-10-23T14:02:18.668Z,94566.56
2022-10-23T14:04:46.552Z,94561.75
2022-10-23T14:07:13.522Z,94567.03
2022-10-23T14:09:40.236Z,94558.78
2022-10-23T14:12:08.662Z,94559.47
2022-10-23T14:14:35.366Z,94554.75
2022-10-23T14:17:01.981Z,94561.59
2022-10-23T14:19:28.841Z,94564.19
2022-10-23T14:21:55.771Z,94564.25
2022-10-23T14:24:22.651Z,94571.78
2022-10-23T14:26:49.402Z,94576.91
2022-10-23T14:29:22.900Z,94567.94
2022-10-23T14:31:50.951Z,94570.41
2022-10-23T14:34:17.717Z,94567.13
2022-10-23T14:36:50.284Z,94568.13
2022-10-23T14:39:18.148Z,94576.41
2022-10-23T14:41:45.070Z,94572.34
2022-10-23T14:44:11.755Z,94578.72
2022-10-23T14:46:39.888Z,94570.09
2022-10-23T14:49:06.967Z,94576.41
2022-10-23T14:51:33.829Z,94570.00
2022-10-23T14:54:02.590Z,94566.63
2022-10-23T14:56:29.859Z,94561.53
2022-10-23T14:59:02.706Z,94559.69
2022-10-23T15:01:30.124Z,94560.69
2022-10-23T15:03:58.553Z,94557.88
2022-10-23T15:06:25.690Z,94546.09
2022-10-23T15:08:56.505Z,94560.16
2022-10-23T15:11:24.861Z,94560.69
2022-10-23T15:13:52.078Z,94558.97
2022-10-23T15:16:18.990Z,94557.41
2022-10-23T15:18:45.970Z,94554.41
2022-10-23T15:21:14.838Z,94553.81
2022-10-23T15:23:45.083Z,94552.88
2022-10-23T15:26:14.322Z,94553.88
2022-10-23T15:28:41.036Z,94550.91
2022-10-23T15:31:24.140Z,94553.00
2022-10-23T15:33:50.841Z,94548.78
2022-10-23T15:36:19.104Z,94541.59
2022-10-23T15:38:46.002Z,94543.50
2022-10-23T15:41:15.395Z,94544.03
2022-10-23T15:43:42.174Z,94544.69
2022-10-23T15:46:09.080Z,94536.19
2022-10-23T15:48:35.791Z,94538.78
2022-10-23T15:51:02.530Z,94533.41
2022-10-23T15:53:30.640Z,94531.88
2022-10-23T15:55:58.780Z,94529.22
2022-10-23T15:58:25.871Z,94535.38
2022-10-23T16:00:52.669Z,94525.00
2022-10-23T16:03:19.393Z,94534.16
2022-10-23T16:05:46.286Z,94533.84
2022-10-23T16:08:13.231Z,94535.91
2022-10-23T16:10:42.287Z,94526.25
2022-10-23T16:13:09.148Z,94526.56
2022-10-23T16:15:36.251Z,94524.69
2022-10-23T16:18:03.226Z,94522.50
2022-10-23T16:20:30.455Z,94537.09
2022-10-23T16:22:57.154Z,94520.28
2022-10-23T16:25:24.124Z,94536.00
2022-10-23T16:27:52.336Z,94528.91
2022-10-23T16:30:21.383Z,94533.31
2022-10-23T16:32:48.097Z,94525.44
2022-10-23T16:35:14.822Z,94524.00
2022-10-23T16:37:54.759Z,94521.63
2022-10-23T16:40:21.438Z,94518.91
2022-10-23T16:43:08.337Z,94536.31
2022-10-23T16:45:45.267Z,94540.53
2022-10-23T16:48:11.921Z,94541.94
2022-10-23T16:53:06.227Z,94550.06
2022-10-23T16:55:32.889Z,94549.91
2022-10-23T16:58:00.745Z,94562.13
2022-10-23T17:00:34.832Z,94570.41
2022-10-23T17:03:02.703Z,94575.38
2022-10-23T17:05:32.450Z,94579.00
2022-10-23T17:07:59.121Z,94580.69
2022-10-23T17:10:25.897Z,94578.91
2022-10-23T17:12:52.608Z,94579.53
2022-10-23T17:15:21.187Z,94588.16
2022-10-23T17:17:49.371Z,94589.66
2022-10-23T17:20:16.118Z,94592.28
2022-10-23T17:22:42.921Z,94599.88
2022-10-23T17:25:10.462Z,94600.00
2022-10-23T17:27:37.354Z,94605.78
2022-10-23T17:30:08.158Z,94604.59
2022-10-23T17:32:37.331Z,94598.88
2022-10-23T17:35:08.373Z,94599.78
2022-10-23T17:37:35.319Z,94606.81
2022-10-23T17:40:05.017Z,94602.38
2022-10-23T17:42:31.974Z,94597.75
2022-10-23T17:44:58.932Z,94594.41
2022-10-23T17:47:25.614Z,94593.41
2022-10-23T17:49:52.615Z,94598.06
2022-10-23T17:52:20.598Z,94612.00
2022-10-23T17:54:51.464Z,94603.69
2022-10-23T17:57:18.195Z,94602.91
2022-10-23T17:59:44.905Z,94603.31
2022-10-23T18:02:13.683Z,94604.56
2022-10-23T18:04:40.750Z,94609.03
2022-10-23T18:07:07.558Z,94607.06
2022-10-23T18:09:35.720Z,94615.84
2022-10-23T18:12:02.537Z,94620.56
2022-10-23T18:14:29.922Z,94633.91
2022-10-23T18:16:56.829Z,94652.63
2022-10-23T18:19:23.715Z,94661.22
2022-10-23T18:21:50.392Z,94657.25
2022-10-23T18:24:18.154Z,94652.22
2022-10-23T18:26:48.113Z,94650.63
2022-10-23T18:29:17.277Z,94647.19
2022-10-23T18:31:45.331Z,94652.59
2022-10-23T18:34:15.978Z,94647.38
2022-10-23T18:36:43.005Z,94642.72
2022-10-23T18:39:13.404Z,94643.66
2022-10-23T18:41:42.881Z,94641.09
2022-10-23T18:44:15.423Z,94627.50
2022-10-23T18:46:42.443Z,94618.72
2022-10-23T18:49:09.313Z,94609.22
2022-10-23T18:51:37.014Z,94622.13
2022-10-23T18:54:06.994Z,94612.94
2022-10-23T18:56:35.837Z,94613.03
2022-10-23T18:59:05.263Z,94601.56
2022-10-23T19:01:34.769Z,94610.56
2022-10-23T19:04:02.266Z,94599.31
2022-10-23T19:06:29.905Z,94609.88
2022-10-23T19:08:57.274Z,94601.53
2022-10-23T19:11:26.454Z,94600.34
2022-10-23T19:13:53.302Z,94609.91
2022-10-23T19:16:25.873Z,94615.97
2022-10-23T19:18:57.350Z,94611.44
2022-10-23T19:21:31.119Z,94612.22
2022-10-23T19:24:00.452Z,94612.22
2022-10-23T19:26:27.813Z,94619.41
2022-10-23T19:28:54.527Z,94623.38
2022-10-23T19:31:23.358Z,94614.78
2022-10-23T19:33:50.628Z,94622.19
2022-10-23T19:36:23.032Z,94625.13
2022-10-23T19:38:50.569Z,94630.97
2022-10-23T19:41:18.842Z,94626.94
2022-10-23T19:43:45.614Z,94626.13
2022-10-23T19:46:12.623Z,94629.00
2022-10-23T19:48:44.115Z,94627.63
2022-10-23T19:51:12.998Z,94624.41
2022-10-23T19:53:41.956Z,94622.50
2022-10-23T19:56:10.949Z,94630.50
2022-10-23T19:58:38.007Z,94633.16
2022-10-23T20:01:10.498Z,94623.88
2022-10-23T20:03:37.849Z,94623.66
2022-10-23T20:06:07.632Z,94617.88
2022-10-23T20:08:35.151Z,94609.16
2022-10-23T20:11:03.582Z,94619.09
2022-10-23T20:13:30.606Z,94621.94
2022-10-23T20:15:57.432Z,94623.91
2022-10-23T20:18:25.822Z,94623.44
2022-10-23T20:20:53.199Z,94626.78
2022-10-23T20:23:19.936Z,94634.19
2022-10-23T20:25:46.683Z,94623.53
2022-10-23T20:28:15.323Z,94630.44
2022-10-23T20:30:42.648Z,94636.06
2022-10-23T20:33:09.489Z,94637.91
2022-10-23T20:35:40.384Z,94636.53
2022-10-23T20:38:08.236Z,94644.53
2022-10-23T20:40:35.735Z,94644.84
2022-10-23T20:43:02.510Z,94647.00
2022-10-23T20:45:30.624Z,94654.72
2022-10-23T20:47:57.352Z,94652.84
2022-10-23T20:50:24.114Z,94651.75
2022-10-23T20:52:51.399Z,94654.13
2022-10-23T20:55:18.972Z,94662.31
2022-10-23T20:57:46.742Z,94664.97
2022-10-23T21:00:15.246Z,94664.97
2022-10-23T21:02:47.012Z,94672.97
2022-10-23T21:05:15.790Z,94691.63
2022-10-23T21:07:42.659Z,94684.72
2022-10-23T21:10:09.589Z,94700.38
2022-10-23T21:12:36.295Z,94703.88
2022-10-23T21:15:03.052Z,94766.19
2022-10-23T21:17:35.279Z,94789.66
2022-10-23T21:20:04.245Z,94788.22
2022-10-23T21:22:31.273Z,94791.53
2022-10-23T21:25:00.153Z,94811.81
2022-10-23T21:27:27.044Z,94814.00
2022-10-23T21:29:53.872Z,94823.84
2022-10-23T21:32:20.856Z,94821.69
2022-10-23T21:34:47.617Z,94828.03
2022-10-23T21:37:15.769Z,94832.22
2022-10-23T21:39:43.710Z,94847.59
2022-10-23T21:42:10.895Z,94863.09
2022-10-23T21:44:37.621Z,94874.53
2022-10-23T21:47:04.533Z,94873.97
2022-10-23T21:49:31.539Z,94879.28
2022-10-23T21:51:58.407Z,94887.56
2022-10-23T21:54:26.695Z,94881.75
2022-10-23T21:56:53.935Z,94888.91
2022-10-23T21:59:22.672Z,94883.97
2022-10-23T22:01:50.035Z,94883.97
2022-10-23T22:04:18.538Z,94889.78
2022-10-23T22:06:46.929Z,94896.34
2022-10-23T22:09:15.327Z,94890.66
2022-10-23T22:11:43.422Z,94889.75
2022-10-23T22:14:10.238Z,94877.38
2022-10-23T22:16:37.048Z,94884.72
2022-10-23T22:19:04.070Z,94891.28
2022-10-23T22:21:31.040Z,94889.28
2022-10-23T22:23:59.566Z,94889.44
2022-10-23T22:26:28.690Z,94894.41
2022-10-23T22:28:59.385Z,94903.53
2022-10-23T22:31:28.615Z,94913.84
2022-10-23T22:33:56.207Z,94913.75
2022-10-23T22:36:23.382Z,94921.97
2022-10-23T22:38:50.331Z,94909.34
2022-10-23T22:41:18.060Z,94911.16
2022-10-23T22:43:45.010Z,94916.09
2022-10-23T22:46:15.117Z,94920.56
2022-10-23T22:48:42.259Z,94924.00
2022-10-23T22:51:12.094Z,94921.84
2022-10-23T22:53:38.903Z,94923.94
2022-10-23T22:56:06.447Z,94919.59
2022-10-23T22:58:33.530Z,94912.59
2022-10-23T23:01:04.732Z,94917.63
2022-10-23T23:03:34.623Z,94921.88
2022-10-23T23:06:03.634Z,94923.16
2022-10-23T23:08:30.138Z,94928.31
2022-10-23T23:10:57.863Z,94936.31
2022-10-23T23:13:25.525Z,94942.94
2022-10-23T23:15:52.435Z,94936.53
2022-10-23T23:18:19.559Z,94931.19
2022-10-23T23:20:47.827Z,94934.94
2022-10-23T23:23:15.355Z,94940.28
2022-10-23T23:25:42.929Z,94937.63
2022-10-23T23:28:11.904Z,94939.19
2022-10-23T23:30:38.920Z,94933.06
2022-10-23T23:33:05.624Z,94936.81
2022-10-23T23:35:32.371Z,94933.84
2022-10-23T23:38:00.614Z,94939.97
2022-10-23T23:40:27.370Z,94932.47
2022-10-23T23:42:54.007Z,94929.03
2022-10-23T23:45:20.796Z,94925.84
2022-10-23T23:47:47.781Z,94936.00
2022-10-23T23:50:15.237Z,94942.72
2022-10-23T23:52:42.074Z,94944.41
2022-10-23T23:55:10.761Z,94945.97
2022-10-23T23:57:37.501Z,94954.00
